Flight Track Log - Related Links

Times and Time Zones

All times are in EDT time to prevent confusion due to time zone crossing. See the QTR503 flight status page for this flight to view local times or setup timezone preferences in your user account.

Time Position Orientation Groundspeed Altitude Reporting Facility
EDT Latitude Longitude Course Direction KTS MPH feet Rate Location/Type
Sun 12:52:22 AM 30.1660 31.4430 41° Northeast 2,700  Level FlightAware ADS-B
Sun 12:53:02 AM 30.1770 31.4600 53° Northeast 180 207 3,200 441 Climbing FlightAware ADS-B
Sun 12:53:30 AM 30.1840 31.4810 69° East 180 207 3,200 197 Level FlightAware ADS-B
Sun 12:56:00 AM 30.1351 31.7810 101° East  Level Estimated
Sun 12:57:00 AM 30.1153 31.9009 101° East  Level Estimated
Sun 12:58:00 AM 30.0954 32.0208 101° East  Level Estimated
Sun 12:59:00 AM 30.0755 32.1406 101° East  Level Estimated
Sun 01:00:00 AM 30.0554 32.2603 101° East  Level Estimated
Sun 01:01:00 AM 30.0352 32.3801 101° East  Level Estimated
Sun 01:02:00 AM 30.0160 32.4933 101° East  Level Estimated
Sun 01:03:00 AM 29.9967 32.6064 101° East  Level Estimated
Sun 01:04:00 AM 29.9773 32.7195 101° East  Level Estimated
Sun 01:05:00 AM 29.9578 32.8326 101° East  Level Estimated
Sun 01:06:00 AM 29.9382 32.9456 101° East  Level Estimated
Sun 01:07:00 AM 29.9185 33.0586 101° East  Level Estimated
Sun 01:08:00 AM 29.8987 33.1716 101° East  Level Estimated
Sun 01:09:00 AM 29.8788 33.2845 101° East  Level Estimated
Sun 01:10:00 AM 29.8588 33.3973 102° East  Level Estimated
Sun 01:11:00 AM 29.8388 33.5101 102° East  Level Estimated
Sun 01:12:00 AM 29.8186 33.6229 102° East  Level Estimated
Sun 01:13:00 AM 29.7983 33.7356 102° East  Level Estimated
Sun 01:14:00 AM 29.7780 33.8482 102° East  Level Estimated
Sun 01:15:00 AM 29.7575 33.9608 102° East  Level Estimated
Sun 01:16:00 AM 29.7369 34.0734 102° East  Level Estimated
Sun 01:17:00 AM 29.7163 34.1860 102° East  Level Estimated
Sun 01:18:00 AM 29.6956 34.2984 102° East  Level Estimated
Sun 01:19:00 AM 29.6747 34.4109 102° East  Level Estimated
Sun 01:20:00 AM 29.6538 34.5233 102° East  Level Estimated
Sun 01:21:00 AM 29.6328 34.6356 102° East  Level Estimated
Sun 01:22:00 AM 29.6116 34.7479 102° East  Level Estimated
Sun 01:23:00 AM 29.5904 34.8601 102° East  Level Estimated
Sun 01:24:00 AM 29.5691 34.9723 102° East  Level Estimated
Sun 01:25:00 AM 29.5477 35.0845 102° East  Level Estimated
Sun 01:26:00 AM 29.5262 35.1966 102° East  Level Estimated
Sun 01:27:00 AM 29.5046 35.3086 102° East  Level Estimated
Sun 01:28:00 AM 29.4829 35.4207 103° East  Level Estimated
Sun 01:29:00 AM 29.4611 35.5326 103° East  Level Estimated
Sun 01:30:00 AM 29.4393 35.6445 103° East  Level Estimated
Sun 01:31:00 AM 29.4173 35.7564 103° East  Level Estimated
Sun 01:32:00 AM 29.3953 35.8682 103° East  Level Estimated
Sun 01:33:00 AM 29.3731 35.9800 103° East  Level Estimated
Sun 01:34:00 AM 29.3508 36.0917 103° East  Level Estimated
Sun 01:35:00 AM 29.3285 36.2034 103° East  Level Estimated
Sun 01:36:00 AM 29.3061 36.3150 103° East  Level Estimated
Sun 01:37:00 AM 29.2836 36.4265 103° East  Level Estimated
Sun 01:38:00 AM 29.2609 36.5381 103° East  Level Estimated
Sun 01:39:00 AM 29.2382 36.6495 103° East  Level Estimated
Sun 01:40:00 AM 29.2154 36.7609 103° East  Level Estimated
Sun 01:41:00 AM 29.1925 36.8723 103° East  Level Estimated
Sun 01:42:00 AM 29.1695 36.9836 103° East  Level Estimated
Sun 01:43:00 AM 29.1465 37.0949 103° East  Level Estimated
Sun 01:44:00 AM 29.1233 37.2061 103° East  Level Estimated
Sun 01:45:00 AM 29.1000 37.3173 103° East  Level Estimated
Sun 01:46:00 AM 29.0767 37.4284 103° East  Level Estimated
Sun 01:47:00 AM 29.0532 37.5395 104° East  Level Estimated
Sun 01:48:00 AM 29.0297 37.6505 104° East  Level Estimated
Sun 01:49:00 AM 29.0060 37.7615 104° East  Level Estimated
Sun 01:50:00 AM 28.9823 37.8724 104° East  Level Estimated
Sun 01:51:00 AM 28.9585 37.9833 104° East  Level Estimated
Sun 01:52:00 AM 28.9346 38.0941 104° East  Level Estimated
Sun 01:53:00 AM 28.9106 38.2049 104° East  Level Estimated
Sun 01:54:00 AM 28.8865 38.3156 104° East  Level Estimated
Sun 01:55:00 AM 28.8624 38.4262 104° East  Level Estimated
Sun 01:56:00 AM 28.8381 38.5368 104° East  Level Estimated
Sun 01:57:00 AM 28.8138 38.6474 104° East  Level Estimated
Sun 01:58:00 AM 28.7893 38.7579 104° East  Level Estimated
Sun 01:59:00 AM 28.7648 38.8684 104° East  Level Estimated
Sun 02:00:00 AM 28.7402 38.9788 104° East  Level Estimated
Sun 02:01:00 AM 28.7155 39.0891 104° East  Level Estimated
Sun 02:02:00 AM 28.6907 39.1994 104° East  Level Estimated
Sun 02:03:00 AM 28.6658 39.3097 104° East  Level Estimated
Sun 02:04:00 AM 28.6408 39.4199 104° East  Level Estimated
Sun 02:05:00 AM 28.6157 39.5300 105° East  Level Estimated
Sun 02:06:00 AM 28.5906 39.6401 105° East  Level Estimated
Sun 02:07:00 AM 28.5653 39.7501 105° East  Level Estimated
Sun 02:08:00 AM 28.5400 39.8601 105° East  Level Estimated
Sun 02:09:00 AM 28.5145 39.9701 105° East  Level Estimated
Sun 02:10:00 AM 28.4890 40.0799 105° East  Level Estimated
Sun 02:11:00 AM 28.4634 40.1898 105° East  Level Estimated
Sun 02:12:00 AM 28.4377 40.2995 105° East  Level Estimated
Sun 02:13:00 AM 28.4120 40.4092 105° East  Level Estimated
Sun 02:14:00 AM 28.3861 40.5189 105° East  Level Estimated
Sun 02:15:00 AM 28.3601 40.6285 105° East  Level Estimated
Sun 02:16:00 AM 28.3341 40.7381 105° East  Level Estimated
Sun 02:17:00 AM 28.3080 40.8476 105° East  Level Estimated
Sun 02:18:00 AM 28.2817 40.9570 105° East  Level Estimated
Sun 02:19:00 AM 28.2554 41.0664 105° East  Level Estimated
Sun 02:20:00 AM 28.2290 41.1758 105° East  Level Estimated
Sun 02:21:00 AM 28.2026 41.2850 105° East  Level Estimated
Sun 02:22:00 AM 28.1760 41.3943 105° East  Level Estimated
Sun 02:23:00 AM 28.1493 41.5035 105° East  Level Estimated
Sun 02:24:00 AM 28.1226 41.6126 106° East  Level Estimated
Sun 02:25:00 AM 28.0958 41.7216 106° East  Level Estimated
Sun 02:26:00 AM 28.0689 41.8307 106° East  Level Estimated
Sun 02:27:00 AM 28.0419 41.9396 106° East  Level Estimated
Sun 02:28:00 AM 28.0148 42.0485 106° East  Level Estimated
Sun 02:29:00 AM 27.9876 42.1574 106° East  Level Estimated
Sun 02:30:00 AM 27.9604 42.2662 106° East  Level Estimated
Sun 02:31:00 AM 27.9330 42.3749 106° East  Level Estimated
Sun 02:32:00 AM 27.9056 42.4836 106° East  Level Estimated
Sun 02:33:00 AM 27.8781 42.5923 106° East  Level Estimated
Sun 02:34:00 AM 27.8505 42.7008 106° East  Level Estimated
Sun 02:35:00 AM 27.8228 42.8093 106° East  Level Estimated
Sun 02:36:00 AM 27.7950 42.9178 106° East  Level Estimated
Sun 02:37:00 AM 27.7672 43.0262 106° East  Level Estimated
Sun 02:38:00 AM 27.7393 43.1346 106° East  Level Estimated
Sun 02:39:00 AM 27.7113 43.2429 106° East  Level Estimated
Sun 02:40:00 AM 27.6831 43.3511 106° East  Level Estimated
Sun 02:41:00 AM 27.6550 43.4593 106° East  Level Estimated
Sun 02:42:00 AM 27.6267 43.5674 106° East  Level Estimated
Sun 02:43:00 AM 27.5983 43.6755 106° East  Level Estimated
Sun 02:44:00 AM 27.5699 43.7835 107° East  Level Estimated
Sun 02:45:00 AM 27.5414 43.8915 107° East  Level Estimated
Sun 02:46:00 AM 27.5128 43.9994 107° East  Level Estimated
Sun 02:47:00 AM 27.4841 44.1073 107° East  Level Estimated
Sun 02:48:00 AM 27.4553 44.2150 107° East  Level Estimated
Sun 02:49:00 AM 27.4265 44.3228 107° East  Level Estimated
Sun 02:50:00 AM 27.3975 44.4305 107° East  Level Estimated
Sun 02:51:00 AM 27.3685 44.5381 107° East  Level Estimated
Sun 02:52:00 AM 27.3394 44.6457 107° East  Level Estimated
Sun 02:53:00 AM 27.3102 44.7532 107° East  Level Estimated
Sun 02:54:00 AM 27.2809 44.8606 107° East  Level Estimated
Sun 02:55:00 AM 27.2516 44.9680 107° East  Level Estimated
Sun 02:56:00 AM 27.2222 45.0754 107° East  Level Estimated
Sun 02:57:00 AM 27.1926 45.1827 107° East  Level Estimated
Sun 02:58:00 AM 27.1630 45.2899 107° East  Level Estimated
Sun 02:59:00 AM 27.1334 45.3971 107° East  Level Estimated
Sun 03:00:00 AM 27.1036 45.5042 107° East  Level Estimated
Sun 03:01:00 AM 27.0738 45.6112 107° East  Level Estimated
Sun 03:02:00 AM 27.0438 45.7182 107° East  Level Estimated
Sun 03:03:00 AM 27.0138 45.8252 107° East  Level Estimated
Sun 03:04:00 AM 26.9838 45.9321 108° East  Level Estimated
Sun 03:05:00 AM 26.9536 46.0389 108° East  Level Estimated
Sun 03:06:00 AM 26.9234 46.1457 108° East  Level Estimated
Sun 03:07:00 AM 26.8930 46.2524 108° East  Level Estimated
Sun 03:08:00 AM 26.8626 46.3590 108° East  Level Estimated
Sun 03:09:00 AM 26.8322 46.4656 108° East  Level Estimated
Sun 03:10:00 AM 26.8016 46.5722 108° East  Level Estimated
Sun 03:11:00 AM 26.7710 46.6786 108° East  Level Estimated
Sun 03:12:00 AM 26.7402 46.7851 108° East  Level Estimated
Sun 03:13:00 AM 26.7094 46.8914 108° East  Level Estimated
Sun 03:14:00 AM 26.6786 46.9978 108° East  Level Estimated
Sun 03:14:17 AM 26.4570 50.4040 108° East 471 542 31,000  Level FlightAware ADS-B
Sun 03:14:53 AM 26.4380 50.4770 106° East 471 542 31,000  Level FlightAware ADS-B
Sun 03:15:00 AM 26.6476 47.1040 108° East  Level Estimated
Sun 03:16:08 AM 26.3850 50.6580 108° East 471 542 31,000  Level FlightAware ADS-B
Sun 03:16:47 AM 26.3580 50.7560 107° East 472 543 31,000 -357 Level FlightAware ADS-B
Sun 03:17:32 AM 26.3280 50.8600 108° East 467 537 30,500 -1,395 Descending FlightAware ADS-B
Sun 03:18:13 AM 26.2990 50.9470 110° East 458 527 29,000 -1,976 Descending FlightAware ADS-B
Sun 03:18:57 AM 26.2540 51.0430 118° Southeast 461 531 27,700 -1,714 Descending FlightAware ADS-B
Sun 03:19:37 AM 26.2140 51.1250 119° Southeast 461 531 26,600 -2,000 Descending FlightAware ADS-B
Sun 03:20:18 AM 26.1710 51.2100 119° Southeast 446 513 25,000 -2,233 Descending FlightAware ADS-B
Sun 03:21:03 AM 26.1250 51.3010 119° Southeast 432 497 23,400 -2,188 Descending FlightAware ADS-B
Sun 03:21:43 AM 26.0860 51.3780 119° Southeast 425 489 21,900 -2,175 Descending FlightAware ADS-B
Sun 03:22:23 AM 26.0290 51.4340 139° Southeast 418 481 20,500 -2,122 Descending FlightAware ADS-B
Sun 03:23:05 AM 25.9660 51.4780 148° Southeast 404 465 19,000 -2,259 Descending FlightAware ADS-B
Sun 03:23:48 AM 25.8930 51.5300 147° Southeast 401 461 17,300 -2,024 Descending FlightAware ADS-B
Sun 03:24:28 AM 25.8330 51.5730 147° Southeast 385 443 16,200 -2,047 Descending FlightAware ADS-B
Sun 03:25:13 AM 25.7610 51.6190 150° Southeast 372 428 14,400 -2,612 Descending FlightAware ADS-B
Sun 03:25:53 AM 25.6950 51.6290 172° South 354 407 12,500 -2,571 Descending FlightAware ADS-B
Sun 03:26:37 AM 25.6210 51.6400 172° South 344 396 10,800 -1,694 Descending FlightAware ADS-B
Sun 03:27:18 AM 25.5580 51.6490 173° South 324 373 10,100 -943 Descending FlightAware ADS-B
Sun 03:27:47 AM 25.5160 51.6550 173° South 311 358 9,700 -1,200 Descending FlightAware ADS-B
Sun 03:28:13 AM 25.4790 51.6610 172° South 309 356 9,000 -1,607 Descending FlightAware ADS-B
Sun 03:28:43 AM 25.4380 51.6680 171° South 312 359 8,200 -1,400 Descending FlightAware ADS-B
Sun 03:29:13 AM 25.3930 51.6740 173° South 312 359 7,600 -873 Descending FlightAware ADS-B
Sun 03:29:38 AM 25.3560 51.6800 172° South 309 356 7,400 -600 Descending FlightAware ADS-B
Sun 03:29:53 AM 25.3340 51.6840 171° South 307 353 7,200 -643 Descending FlightAware ADS-B
Sun 03:30:34 AM 25.2770 51.6920 173° South 293 337 6,800 -676 Descending FlightAware ADS-B
Sun 03:31:04 AM 25.2360 51.6980 172° South 289 333 6,400 -652 Descending FlightAware ADS-B
Sun 03:31:20 AM 25.2150 51.7010 173° South 273 314 6,300 -600 Descending FlightAware ADS-B
Sun 03:31:44 AM 25.1850 51.7060 171° South 263 303 6,000 -769 Descending FlightAware ADS-B
Sun 03:31:59 AM 25.1670 51.7090 171° South 260 299 5,800 -1,000 Descending FlightAware ADS-B
Sun 03:32:20 AM 25.1450 51.7120 173° South 259 298 5,400 -1,176 Descending FlightAware ADS-B
Sun 03:32:50 AM 25.1090 51.7190 170° South 258 297 4,800 -1,054 Descending FlightAware ADS-B
Sun 03:33:34 AM 25.0730 51.6940 212° Southwest 192 221 4,100 -1,241 Descending FlightAware ADS-B
Sun 03:33:48 AM 25.0710 51.6780 262° West 175 201 3,600 -1,171 Descending FlightAware ADS-B
Sun 03:34:15 AM 25.0780 51.6600 293° West 169 194 3,300 -536 Descending FlightAware ADS-B
Sun 03:34:44 AM 25.0930 51.6400 310° West 146 168 3,100 -414 Descending FlightAware ADS-B
Sun 03:35:13 AM 25.1120 51.6310 337° Northwest 143 165 2,900 -533 Descending FlightAware ADS-B
Sun 03:35:29 AM 25.1210 51.6270 338° Northwest 140 161 2,700 -652 Descending FlightAware ADS-B
Sun 03:35:59 AM 25.1390 51.6190 338° Northwest 140 161 2,400 -545 Descending FlightAware ADS-B
Sun 03:36:24 AM 25.1520 51.6130 337° Northwest 127 146 2,200 -750 Descending FlightAware ADS-B
Sun 03:36:55 AM 25.1730 51.6040 339° North 136 157 1,700 -750 Descending FlightAware ADS-B
Sun 03:37:20 AM 25.1880 51.5970 337° Northwest 127 146 1,500 -343 Descending FlightAware ADS-B
Sun 03:38:05 AM 25.2090 51.5880 339° North 128 147 1,300 -267 Descending FlightAware ADS-B
Sun 03:40:00 AM 25.2611 51.5651 338° Northwest  Level Estimated
Sun 03:41:00 AM 25.2611 51.5651 324° Northwest  Level Estimated
Sun 03:42:00 AM 25.2611 51.5651 324° Northwest  Level Estimated
Sun 03:43:00 AM 25.2611 51.5651 324° Northwest  Level Estimated
Sun 03:44:00 AM 25.2611 51.5651 324° Northwest  Level Estimated
Sun 03:45:00 AM 25.2611 51.5651 324° Northwest  Level Estimated
Sun 03:46:00 AM 25.2611 51.5651 324° Northwest  Level Estimated
Sun 03:47:00 AM 25.2611 51.5651 324° Northwest  Level Estimated
Sun 03:48:00 AM 25.2611 51.5651 324° Northwest  Level Estimated
Sun 03:49:00 AM 25.2611 51.5651 324° Northwest  Level Estimated
Sun 03:50:00 AM 25.2611 51.5651 324° Northwest  Level Estimated
Sun 03:51:00 AM 25.2611 51.5651 324° Northwest  Level Estimated
Sun 03:52:00 AM 25.2611 51.5651 324° Northwest  Level Estimated
Sun 03:53:00 AM 25.2611 51.5651 324° Northwest  Level Estimated
Sun 03:54:00 AM 25.2611 51.5651 324° Northwest  Level Estimated
Sun 03:55:00 AM 25.2611 51.5651 324° Northwest  Level Estimated
Sun 03:56:00 AM 25.2611 51.5651 324° Northwest  Level Estimated
Sun 03:57:00 AM 25.2611 51.5651 324° Northwest  Level Estimated
Sun 03:58:00 AM 25.2611 51.5651 324° Northwest  Level Estimated

Login

Don't have an account? Register now (free) for customized features, flight alerts, and more!